Time;durP1;ratioP1;P1;durP2;ratioP2;P2;SDS_P1;SDS_P2;PMS_P1;PMS_P2;Temp;Humidity;BMP_temperature;BMP_pressure;BME280_temperature;BME280_humidity;BME280_pressure;Samples;Min_cycle;Max_cycle;Signal;HPM_P1;HPM_P2
2024/01/19 00:02:21;;;;;;;7.37;3.83;;;-1.70;99.90;;;;;;4459814;28;658630;-76
2024/01/19 00:05:09;;;;;;;31.63;13.13;;;-1.70;99.90;;;;;;4429541;28;656887;-76
2024/01/19 00:07:56;;;;;;;29.20;11.33;;;-1.70;99.90;;;;;;4445941;28;659218;-76
2024/01/19 00:10:43;;;;;;;39.43;14.77;;;-1.70;99.90;;;;;;4433968;28;659084;-76
2024/01/19 00:13:30;;;;;;;10.53;4.67;;;-1.80;99.90;;;;;;4456502;28;659851;-76
2024/01/19 00:16:19;;;;;;;35.53;16.53;;;-1.80;99.90;;;;;;4437461;28;656851;-75
2024/01/19 00:19:06;;;;;;;29.93;13.90;;;-1.80;99.90;;;;;;4457712;28;658699;-76
2024/01/19 00:21:53;;;;;;;36.60;13.83;;;-1.80;99.90;;;;;;4425980;28;658820;-77
2024/01/19 00:24:40;;;;;;;35.22;14.52;;;-1.80;99.90;;;;;;4451477;28;659716;-76
2024/01/19 00:27:29;;;;;;;31.53;13.50;;;-1.70;99.90;;;;;;4439587;28;659093;-76
2024/01/19 00:30:16;;;;;;;38.27;14.90;;;-1.80;99.90;;;;;;4457332;28;660203;-76
2024/01/19 00:33:05;;;;;;;37.30;14.25;;;-1.80;99.90;;;;;;4440235;28;659095;-77
2024/01/19 00:35:52;;;;;;;35.20;13.77;;;-1.70;99.90;;;;;;4445004;28;659082;-74
2024/01/19 00:38:40;;;;;;;39.27;15.93;;;-1.70;99.90;;;;;;4448218;28;658509;-76
2024/01/19 00:41:27;;;;;;;41.87;16.10;;;-1.80;99.90;;;;;;4458324;28;658899;-76
2024/01/19 00:44:15;;;;;;;36.90;12.93;;;-1.80;99.90;;;;;;4446751;28;659105;-76
2024/01/19 00:47:02;;;;;;;39.30;15.00;;;-1.80;99.90;;;;;;4457350;28;658684;-76
2024/01/19 00:49:50;;;;;;;35.93;14.23;;;-1.80;99.90;;;;;;4424084;28;659844;-76
2024/01/19 00:52:38;;;;;;;36.67;14.83;;;-1.80;99.90;;;;;;4436877;28;658634;-75
2024/01/19 00:55:25;;;;;;;40.40;15.07;;;-1.70;99.90;;;;;;4451959;28;660091;-76
2024/01/19 00:58:14;;;;;;;43.53;15.37;;;-1.80;99.90;;;;;;4455754;28;658367;-75
2024/01/19 01:01:01;;;;;;;43.30;16.73;;;-1.80;99.90;;;;;;4458541;28;658450;-76
2024/01/19 01:03:48;;;;;;;47.20;16.67;;;-1.80;99.90;;;;;;4437331;28;658865;-76
2024/01/19 01:06:37;;;;;;;54.07;18.87;;;-1.70;99.90;;;;;;4458804;28;659011;-76
2024/01/19 01:09:24;;;;;;;52.70;19.97;;;-1.80;99.90;;;;;;4427348;28;659542;-76
2024/01/19 01:12:11;;;;;;;49.67;19.47;;;-1.80;99.90;;;;;;4458095;28;658801;-76
2024/01/19 01:14:59;;;;;;;49.30;19.67;;;-1.90;99.90;;;;;;4424767;28;659047;-76
2024/01/19 01:17:46;;;;;;;59.57;21.60;;;-1.80;99.90;;;;;;4455538;28;658878;-76
2024/01/19 01:20:33;;;;;;;60.40;21.63;;;-1.80;99.90;;;;;;4435614;28;659055;-74
2024/01/19 01:23:21;;;;;;;48.63;19.70;;;-1.80;99.90;;;;;;4454480;27;659000;-76
2024/01/19 01:26:09;;;;;;;40.27;16.20;;;-1.70;99.90;;;;;;4425612;28;659412;-76
2024/01/19 01:28:56;;;;;;;45.50;17.40;;;-1.90;99.90;;;;;;4453624;27;658798;-74
2024/01/19 01:31:43;;;;;;;43.97;18.67;;;-1.80;99.90;;;;;;4435951;28;658671;-74
2024/01/19 01:34:30;;;;;;;53.05;19.92;;;-1.70;99.90;;;;;;4454291;28;659349;-76
2024/01/19 01:37:17;;;;;;;48.33;18.67;;;-1.80;99.90;;;;;;4436156;28;658832;-74
2024/01/19 01:40:07;;;;;;;48.43;18.33;;;-1.80;99.90;;;;;;4462847;28;658838;-76
2024/01/19 01:42:57;;;;;;;33.00;12.63;;;-1.80;99.90;;;;;;4433100;28;660284;-75
2024/01/19 01:45:44;;;;;;;50.50;16.93;;;-1.70;99.90;;;;;;4429856;28;660016;-76
2024/01/19 01:48:32;;;;;;;48.43;18.60;;;-1.80;99.90;;;;;;4458445;28;658775;-76
2024/01/19 01:51:19;;;;;;;53.27;18.07;;;-1.80;99.90;;;;;;4426492;28;660080;-75
2024/01/19 01:54:07;;;;;;;52.23;19.30;;;-1.80;99.90;;;;;;4447827;28;659438;-76
2024/01/19 01:56:56;;;;;;;51.90;21.67;;;-1.90;99.90;;;;;;4424166;28;659964;-74
2024/01/19 01:59:43;;;;;;;48.77;18.27;;;-1.90;99.90;;;;;;4428551;28;658267;-75
2024/01/19 02:02:30;;;;;;;53.10;20.60;;;-1.90;99.90;;;;;;4449203;28;659011;-76
2024/01/19 02:05:18;;;;;;;36.00;15.47;;;-2.00;99.90;;;;;;4432597;27;658449;-75
2024/01/19 02:08:05;;;;;;;53.63;20.57;;;-1.90;99.90;;;;;;4459138;28;659747;-75
2024/01/19 02:10:53;;;;;;;58.97;21.50;;;-1.90;99.90;;;;;;4436303;27;659029;-75
2024/01/19 02:13:41;;;;;;;20.83;8.70;;;-1.90;99.90;;;;;;4453807;27;659214;-75
2024/01/19 02:16:28;;;;;;;59.00;19.53;;;-1.90;99.90;;;;;;4421768;28;657686;-75
2024/01/19 02:19:16;;;;;;;44.20;16.33;;;-1.90;99.90;;;;;;4460588;28;659133;-75
2024/01/19 02:22:03;;;;;;;58.17;19.13;;;-1.80;99.90;;;;;;4422820;28;658612;-75
2024/01/19 02:24:51;;;;;;;47.53;18.17;;;-1.90;99.90;;;;;;4452967;27;659037;-75
2024/01/19 02:27:39;;;;;;;45.90;18.23;;;-1.90;99.90;;;;;;4432531;28;658419;-75
2024/01/19 02:30:26;;;;;;;56.43;20.13;;;-1.90;99.90;;;;;;4451109;28;659291;-75
2024/01/19 02:33:13;;;;;;;53.67;20.50;;;-1.80;99.90;;;;;;4427393;28;658503;-77
2024/01/19 02:36:00;;;;;;;51.43;19.90;;;-1.90;99.90;;;;;;4456702;28;658619;-77
2024/01/19 02:38:47;;;;;;;51.17;19.37;;;-1.80;99.90;;;;;;4437456;27;659309;-77
2024/01/19 02:41:36;;;;;;;47.90;18.93;;;-1.90;99.90;;;;;;4442320;28;659291;-77
2024/01/19 02:44:23;;;;;;;50.47;17.90;;;-1.90;99.90;;;;;;4431127;27;658569;-77
2024/01/19 02:47:10;;;;;;;48.07;17.47;;;-1.90;99.90;;;;;;4450108;27;659774;-78
2024/01/19 02:49:57;;;;;;;51.57;18.60;;;-1.80;99.90;;;;;;4432521;27;659197;-76
2024/01/19 02:52:45;;;;;;;49.40;19.43;;;-1.80;99.90;;;;;;4426156;28;659962;-78
2024/01/19 02:55:32;;;;;;;28.83;11.97;;;-1.90;99.90;;;;;;4451713;27;658851;-75
2024/01/19 02:58:21;;;;;;;27.10;10.17;;;-2.00;99.90;;;;;;4439023;28;659151;-77
2024/01/19 03:01:09;;;;;;;27.77;11.23;;;-2.00;99.90;;;;;;4439337;28;658733;-76
2024/01/19 03:03:56;;;;;;;36.53;14.60;;;-2.00;99.90;;;;;;4439281;28;658922;-77
2024/01/19 03:06:43;;;;;;;43.80;13.03;;;-2.20;99.90;;;;;;4435231;28;659364;-77
2024/01/19 03:09:30;;;;;;;35.20;12.77;;;-2.20;99.90;;;;;;4455971;28;658573;-77
2024/01/19 03:12:18;;;;;;;31.90;11.77;;;-2.20;99.90;;;;;;4433038;27;659347;-75
2024/01/19 03:15:07;;;;;;;12.90;4.63;;;-2.30;99.90;;;;;;4450365;28;659279;-77
2024/01/19 03:17:54;;;;;;;35.47;13.23;;;-2.40;99.90;;;;;;4427552;28;658897;-77
2024/01/19 03:20:41;;;;;;;32.57;12.23;;;-2.40;99.90;;;;;;4462146;28;658707;-77
2024/01/19 03:23:28;;;;;;;28.23;11.52;;;-2.50;99.90;;;;;;4436119;27;659024;-77
2024/01/19 03:26:16;;;;;;;35.27;12.83;;;-2.60;99.90;;;;;;4461060;27;659508;-77
2024/01/19 03:29:03;;;;;;;35.77;12.33;;;-2.60;99.90;;;;;;4425571;27;659577;-76
2024/01/19 03:31:52;;;;;;;33.63;11.93;;;-2.50;99.90;;;;;;4447001;28;659186;-75
2024/01/19 03:34:39;;;;;;;28.27;10.70;;;-2.60;99.90;;;;;;4428509;28;659700;-77
2024/01/19 03:37:27;;;;;;;44.27;15.27;;;-2.70;99.90;;;;;;4455064;28;658222;-77
2024/01/19 03:40:15;;;;;;;36.57;13.87;;;-2.80;99.90;;;;;;4420603;28;658683;-77
2024/01/19 03:43:02;;;;;;;27.27;9.83;;;-2.80;99.90;;;;;;4452464;28;658135;-76
2024/01/19 03:45:49;;;;;;;38.60;12.67;;;-2.70;99.90;;;;;;4433827;28;658248;-77
2024/01/19 03:48:38;;;;;;;35.23;10.63;;;-2.80;99.90;;;;;;4461768;28;659080;-78
2024/01/19 03:51:25;;;;;;;38.60;14.23;;;-2.70;99.90;;;;;;4416209;28;659290;-77
2024/01/19 03:54:12;;;;;;;34.08;12.65;;;-2.80;99.90;;;;;;4435627;28;658779;-75
2024/01/19 03:57:02;;;;;;;14.67;5.27;;;-2.70;99.90;;;;;;4457990;28;659030;-77
2024/01/19 03:59:49;;;;;;;29.08;10.85;;;-2.70;99.90;;;;;;4418429;28;657967;-77
2024/01/19 04:02:37;;;;;;;25.30;9.43;;;-2.70;99.90;;;;;;4441041;28;658670;-76
2024/01/19 04:05:25;;;;;;;33.90;12.90;;;-2.60;99.90;;;;;;4430907;28;657316;-77
2024/01/19 04:08:13;;;;;;;16.70;6.20;;;-2.70;99.90;;;;;;4436780;28;658672;-75
2024/01/19 04:11:00;;;;;;;29.93;11.40;;;-2.70;99.90;;;;;;4449313;28;658606;-77
2024/01/19 04:13:47;;;;;;;14.43;5.53;;;-2.70;99.90;;;;;;4443044;28;658787;-75
2024/01/19 04:16:34;;;;;;;29.98;10.32;;;-2.70;99.90;;;;;;4450512;28;657935;-77
2024/01/19 04:19:22;;;;;;;37.67;14.07;;;-2.70;99.90;;;;;;4449349;28;658406;-76
2024/01/19 04:22:10;;;;;;;33.77;13.17;;;-2.80;99.90;;;;;;4435455;28;658883;-77
2024/01/19 04:24:57;;;;;;;45.33;15.77;;;-2.80;99.90;;;;;;4437712;28;658963;-75
2024/01/19 04:27:45;;;;;;;40.50;15.00;;;-2.70;99.90;;;;;;4449642;28;659970;-75
2024/01/19 04:30:32;;;;;;;35.47;14.40;;;-2.70;99.90;;;;;;4432885;28;658527;-74
2024/01/19 04:33:20;;;;;;;39.17;14.17;;;-2.70;99.90;;;;;;4440079;28;659357;-75
2024/01/19 04:36:07;;;;;;;36.70;12.60;;;-2.60;99.90;;;;;;4447071;28;657890;-77
2024/01/19 04:38:56;;;;;;;33.70;11.67;;;-2.60;99.90;;;;;;4424380;28;659554;-75
2024/01/19 04:41:43;;;;;;;43.57;14.07;;;-2.70;99.90;;;;;;4428034;28;658565;-77
2024/01/19 04:44:30;;;;;;;51.43;17.27;;;-2.70;99.90;;;;;;4461207;28;659375;-77
2024/01/19 04:47:18;;;;;;;36.67;14.00;;;-2.80;99.90;;;;;;4434232;28;658717;-77
2024/01/19 04:50:06;;;;;;;43.10;16.27;;;-2.70;99.90;;;;;;4458125;28;661750;-77
2024/01/19 04:52:53;;;;;;;33.73;12.40;;;-2.80;99.90;;;;;;4430720;28;658701;-76
2024/01/19 04:55:42;;;;;;;43.07;15.70;;;-2.70;99.90;;;;;;4459103;28;659334;-77
2024/01/19 04:58:29;;;;;;;31.83;12.70;;;-2.70;99.90;;;;;;4429698;28;658864;-78
2024/01/19 05:01:17;;;;;;;35.23;13.37;;;-2.70;99.90;;;;;;4437680;28;659167;-78
2024/01/19 05:04:04;;;;;;;29.73;12.07;;;-2.70;99.90;;;;;;4431425;28;659730;-76
2024/01/19 05:06:52;;;;;;;31.70;11.50;;;-2.70;99.90;;;;;;4455293;28;658144;-77
2024/01/19 05:09:39;;;;;;;32.97;11.37;;;-2.70;99.90;;;;;;4435541;27;659973;-77
2024/01/19 05:12:28;;;;;;;35.43;13.17;;;-2.70;99.90;;;;;;4462713;28;658995;-77
2024/01/19 05:15:15;;;;;;;29.27;10.63;;;-2.70;99.90;;;;;;4429529;27;659522;-79
2024/01/19 05:18:03;;;;;;;20.40;7.30;;;-2.70;99.90;;;;;;4433835;28;658795;-75
2024/01/19 05:20:50;;;;;;;31.73;12.13;;;-2.70;99.90;;;;;;4442746;28;657912;-79
2024/01/19 05:23:37;;;;;;;30.83;11.23;;;-2.80;99.90;;;;;;4440310;28;659030;-75
2024/01/19 05:26:26;;;;;;;21.30;9.97;;;-2.80;99.90;;;;;;4454457;27;658520;-78
2024/01/19 05:29:15;;;;;;;23.17;9.13;;;-2.90;99.90;;;;;;4436683;27;657248;-77
2024/01/19 05:32:02;;;;;;;28.47;9.17;;;-2.80;99.90;;;;;;4459004;27;657284;-78
2024/01/19 05:34:49;;;;;;;23.53;9.90;;;-2.80;99.90;;;;;;4436594;27;657440;-78
2024/01/19 05:37:36;;;;;;;21.30;9.03;;;-2.80;99.90;;;;;;4450634;28;657662;-75
2024/01/19 05:40:23;;;;;;;20.10;7.70;;;-2.90;99.90;;;;;;4429576;28;657589;-77
2024/01/19 05:43:10;;;;;;;12.73;6.07;;;-2.90;99.90;;;;;;4456703;27;658307;-77
2024/01/19 05:45:59;;;;;;;21.73;7.47;;;-2.80;99.90;;;;;;4426319;28;657549;-76
2024/01/19 05:48:46;;;;;;;11.70;5.73;;;-2.90;99.90;;;;;;4443638;28;657219;-78
2024/01/19 05:51:33;;;;;;;9.67;3.47;;;-2.90;99.90;;;;;;4421834;28;657575;-78
2024/01/19 05:54:20;;;;;;;13.02;5.00;;;-3.00;99.90;;;;;;4458973;28;657224;-78
2024/01/19 05:57:09;;;;;;;12.70;5.03;;;-3.00;99.90;;;;;;4431729;28;658170;-76
2024/01/19 05:59:56;;;;;;;18.57;5.13;;;-3.00;99.90;;;;;;4440745;28;657461;-78
2024/01/19 06:02:44;;;;;;;16.90;6.20;;;-3.00;99.90;;;;;;4432716;27;657404;-77
2024/01/19 06:05:32;;;;;;;18.03;6.90;;;-3.10;99.90;;;;;;4455500;28;657409;-78
2024/01/19 06:08:19;;;;;;;18.20;6.20;;;-3.10;99.90;;;;;;4424507;28;657608;-77
2024/01/19 06:11:06;;;;;;;15.20;5.87;;;-3.20;99.90;;;;;;4448638;28;658012;-75
2024/01/19 06:13:53;;;;;;;7.70;3.63;;;-3.10;99.90;;;;;;4428969;28;657489;-77
2024/01/19 06:16:40;;;;;;;11.90;4.70;;;-3.10;99.90;;;;;;4452809;28;657131;-77
2024/01/19 06:19:29;;;;;;;15.10;5.97;;;-3.10;99.90;;;;;;4441456;28;658136;-75
2024/01/19 06:22:16;;;;;;;15.40;5.73;;;-3.10;99.90;;;;;;4461338;28;657567;-76
2024/01/19 06:25:03;;;;;;;10.13;4.33;;;-3.10;99.90;;;;;;4437836;28;657481;-77
2024/01/19 06:27:51;;;;;;;1.90;1.13;;;-3.10;99.90;;;;;;4447294;28;657275;-76
2024/01/19 06:30:38;;;;;;;14.73;5.80;;;-3.10;99.90;;;;;;4442440;28;656546;-74
2024/01/19 06:33:25;;;;;;;14.97;5.93;;;-3.10;99.90;;;;;;4461777;28;658018;-76
2024/01/19 06:36:14;;;;;;;13.63;4.82;;;-3.30;99.90;;;;;;4436887;28;657775;-74
2024/01/19 06:39:01;;;;;;;16.90;6.03;;;-3.20;99.90;;;;;;4465317;28;657333;-76
2024/01/19 06:41:48;;;;;;;13.40;6.13;;;-3.30;99.90;;;;;;4434204;28;657740;-75
2024/01/19 06:44:35;;;;;;;15.70;6.73;;;-3.30;99.90;;;;;;4449115;28;658629;-75
2024/01/19 06:47:23;;;;;;;14.67;6.37;;;-3.30;99.90;;;;;;4426738;28;657586;-75
2024/01/19 06:50:10;;;;;;;13.73;6.63;;;-3.30;99.90;;;;;;4458229;27;658152;-76
2024/01/19 06:53:00;;;;;;;16.13;6.87;;;-3.30;99.90;;;;;;4430302;28;657856;-75
2024/01/19 06:55:47;;;;;;;22.53;7.73;;;-3.30;99.90;;;;;;4428264;28;658000;-74
2024/01/19 06:58:34;;;;;;;15.40;6.15;;;-3.30;99.90;;;;;;4459179;28;658023;-75
2024/01/19 07:01:22;;;;;;;20.17;7.70;;;-3.30;99.90;;;;;;4457767;27;657694;-76
2024/01/19 07:04:10;;;;;;;14.17;5.40;;;-3.30;99.90;;;;;;4432260;28;658081;-76
2024/01/19 07:06:57;;;;;;;17.47;7.23;;;-3.30;99.90;;;;;;4449822;28;657938;-73
2024/01/19 07:09:46;;;;;;;19.50;6.67;;;-3.20;99.90;;;;;;4444428;28;657490;-75
2024/01/19 07:12:34;;;;;;;19.23;7.47;;;-3.30;99.90;;;;;;4434937;28;657798;-75
2024/01/19 07:15:21;;;;;;;18.67;7.30;;;-3.30;99.90;;;;;;4433770;28;657496;-76
2024/01/19 07:18:08;;;;;;;18.50;7.30;;;-3.40;99.90;;;;;;4436728;28;657463;-74
2024/01/19 07:20:55;;;;;;;9.27;3.33;;;-3.30;99.90;;;;;;4456361;28;657513;-75
2024/01/19 07:23:42;;;;;;;13.13;5.17;;;-3.30;99.90;;;;;;4423482;28;656462;-73
2024/01/19 07:26:31;;;;;;;13.83;5.20;;;-3.40;99.90;;;;;;4459566;28;658100;-75
2024/01/19 07:29:18;;;;;;;18.03;6.97;;;-3.40;99.90;;;;;;4435596;28;657591;-74
2024/01/19 07:32:06;;;;;;;16.35;6.95;;;-3.40;99.90;;;;;;4446313;28;658760;-75
2024/01/19 07:34:53;;;;;;;21.27;7.40;;;-3.50;99.90;;;;;;4432426;27;658062;-74
2024/01/19 07:37:40;;;;;;;19.97;8.47;;;-3.30;99.90;;;;;;4449215;27;658226;-75
2024/01/19 07:40:27;;;;;;;13.07;4.67;;;-3.50;99.90;;;;;;4439216;28;657892;-73
2024/01/19 07:43:16;;;;;;;17.60;7.77;;;-3.40;99.90;;;;;;4455232;27;658345;-75
2024/01/19 07:46:04;;;;;;;17.60;6.70;;;-3.50;99.90;;;;;;4431445;28;657513;-74
2024/01/19 07:48:51;;;;;;;15.93;5.53;;;-3.50;99.90;;;;;;4443738;28;657795;-74
2024/01/19 07:51:38;;;;;;;16.03;5.40;;;-3.30;99.90;;;;;;4417987;28;658069;-74
2024/01/19 07:54:25;;;;;;;13.13;4.97;;;-3.40;99.90;;;;;;4450712;27;657498;-73
2024/01/19 07:57:12;;;;;;;20.13;6.97;;;-3.30;99.90;;;;;;4433485;27;657775;-74
2024/01/19 08:00:02;;;;;;;21.83;9.40;;;-3.30;99.90;;;;;;4449278;28;658675;-74
2024/01/19 08:02:50;;;;;;;28.63;10.20;;;-3.40;99.90;;;;;;4426446;28;658205;-74
2024/01/19 08:05:37;;;;;;;30.80;10.53;;;-3.40;99.90;;;;;;4450450;28;658696;-74
2024/01/19 08:08:24;;;;;;;16.23;6.37;;;-3.30;99.90;;;;;;4408210;28;659827;-74
2024/01/19 08:11:11;;;;;;;31.67;11.00;;;-3.30;99.90;;;;;;4448022;28;657674;-74
2024/01/19 08:13:58;;;;;;;18.33;7.23;;;-3.20;99.90;;;;;;4419483;28;658633;-73
2024/01/19 08:16:47;;;;;;;6.57;2.47;;;-3.00;99.90;;;;;;4449408;28;658414;-74
2024/01/19 08:19:34;;;;;;;42.83;13.57;;;-3.10;99.90;;;;;;4417645;28;657745;-74
2024/01/19 08:22:22;;;;;;;43.00;16.20;;;-3.00;99.90;;;;;;4443553;28;658646;-74
2024/01/19 08:25:09;;;;;;;40.57;12.07;;;-3.10;99.90;;;;;;4433118;28;659214;-74
2024/01/19 08:27:57;;;;;;;29.97;9.33;;;-3.00;99.90;;;;;;4446369;28;657857;-73
2024/01/19 08:30:44;;;;;;;45.63;15.53;;;-2.90;99.90;;;;;;4422366;28;657592;-72
2024/01/19 08:33:32;;;;;;;45.67;16.07;;;-2.90;99.90;;;;;;4454796;28;659242;-74
2024/01/19 08:36:23;;;;;;;42.43;15.27;;;-2.90;99.90;;;;;;4424907;28;659061;-74
2024/01/19 08:39:11;;;;;;;42.63;15.57;;;-2.80;99.90;;;;;;4428794;28;659486;-74
2024/01/19 08:41:58;;;;;;;44.17;17.57;;;-2.80;99.90;;;;;;4426674;28;659420;-73
2024/01/19 08:44:45;;;;;;;24.07;9.10;;;-2.90;99.90;;;;;;4453051;28;658816;-74
2024/01/19 08:47:32;;;;;;;29.73;10.80;;;-2.60;99.90;;;;;;4435456;28;657661;-73
2024/01/19 08:50:21;;;;;;;34.27;12.90;;;-2.50;99.90;;;;;;4449129;27;660063;-73
2024/01/19 08:53:08;;;;;;;33.03;11.63;;;-2.30;99.90;;;;;;4437666;28;658349;-74
2024/01/19 08:55:55;;;;;;;33.70;12.03;;;-2.40;99.90;;;;;;4456937;28;659330;-73
2024/01/19 08:58:42;;;;;;;28.88;11.43;;;-2.60;99.90;;;;;;4437243;28;658990;-73
2024/01/19 09:01:32;;;;;;;28.93;10.93;;;-2.50;99.90;;;;;;4452100;28;659170;-75
2024/01/19 09:04:19;;;;;;;28.63;12.30;;;-2.40;99.90;;;;;;4429483;28;659395;-73
2024/01/19 09:07:08;;;;;;;26.00;10.17;;;-2.50;99.90;;;;;;4454925;28;658643;-73
2024/01/19 09:09:55;;;;;;;28.47;10.97;;;-2.40;99.90;;;;;;4434323;28;659250;-73
2024/01/19 09:12:42;;;;;;;27.17;9.25;;;-2.00;99.90;;;;;;4438137;28;658899;-72
2024/01/19 09:15:30;;;;;;;2.90;1.77;;;-2.20;99.90;;;;;;4444519;28;658278;-74
2024/01/19 09:18:18;;;;;;;23.27;9.38;;;-2.30;99.90;;;;;;4425862;27;656961;-72
2024/01/19 09:21:05;;;;;;;22.80;8.33;;;-2.70;99.90;;;;;;4451453;28;658755;-73
2024/01/19 09:23:54;;;;;;;27.77;10.57;;;-2.70;99.90;;;;;;4437381;27;658123;-72
2024/01/19 09:26:41;;;;;;;16.60;6.37;;;-2.50;99.90;;;;;;4456442;27;658312;-74
2024/01/19 09:29:28;;;;;;;20.73;6.63;;;-2.50;99.90;;;;;;4433461;28;657657;-73
2024/01/19 09:32:17;;;;;;;26.43;10.60;;;-2.70;99.90;;;;;;4463011;28;659112;-73
2024/01/19 09:35:04;;;;;;;23.40;9.63;;;-2.50;99.90;;;;;;4440870;28;659326;-74
2024/01/19 09:37:51;;;;;;;25.43;9.63;;;-2.50;99.90;;;;;;4457444;28;656850;-74
2024/01/19 09:40:43;;;;;;;27.30;9.83;;;-2.50;99.90;;;;;;4433478;27;657820;-73
2024/01/19 09:43:31;;;;;;;24.03;7.50;;;-2.40;99.90;;;;;;4432112;28;658820;-74
2024/01/19 09:46:19;;;;;;;22.87;8.27;;;-2.50;99.90;;;;;;4434923;27;657775;-74
2024/01/19 09:49:10;;;;;;;29.23;11.03;;;-2.60;99.90;;;;;;4455263;28;657734;-74
2024/01/19 09:52:00;;;;;;;31.73;10.00;;;-2.30;99.90;;;;;;4406774;28;659494;-73
2024/01/19 09:54:48;;;;;;;27.20;10.47;;;-2.20;99.90;;;;;;4451482;28;659070;-72
2024/01/19 09:57:38;;;;;;;29.13;11.33;;;-2.10;99.90;;;;;;4450811;28;658855;-73
2024/01/19 10:00:27;;;;;;;28.17;11.07;;;-1.60;99.90;;;;;;4431212;28;659397;-73
2024/01/19 10:03:14;;;;;;;27.07;10.40;;;-1.40;99.90;;;;;;4429055;28;659658;-73
2024/01/19 10:06:03;;;;;;;30.63;11.40;;;-1.40;99.90;;;;;;4451900;28;658826;-74
2024/01/19 10:08:50;;;;;;;20.53;5.70;;;-1.50;99.90;;;;;;4435021;28;659384;-74
2024/01/19 10:11:37;;;;;;;26.15;11.98;;;-1.40;99.90;;;;;;4437533;28;657503;-72
2024/01/19 10:14:26;;;;;;;22.33;8.70;;;-0.70;99.90;;;;;;4450929;28;659831;-73
2024/01/19 10:17:15;;;;;;;26.73;10.23;;;0.00;99.90;;;;;;4431043;27;657839;-73
2024/01/19 10:20:02;;;;;;;25.50;9.13;;;0.30;99.90;;;;;;4461260;28;657425;-73
2024/01/19 10:22:49;;;;;;;15.93;6.80;;;-0.40;99.90;;;;;;4431940;28;657159;-73
2024/01/19 10:25:36;;;;;;;31.00;10.17;;;-0.80;99.90;;;;;;4444168;27;658047;-73
2024/01/19 10:28:29;;;;;;;16.00;5.50;;;-0.80;99.90;;;;;;4434473;28;658732;-73
2024/01/19 10:31:21;;;;;;;32.20;9.53;;;-1.20;99.90;;;;;;4432033;28;657452;-73
2024/01/19 10:34:17;;;;;;;12.60;5.47;;;-1.60;99.90;;;;;;4438991;28;657407;-71
2024/01/19 10:37:05;;;;;;;21.13;8.73;;;-1.70;99.90;;;;;;4405301;28;658174;-73
2024/01/19 10:39:52;;;;;;;11.97;5.37;;;-1.70;99.90;;;;;;4440860;28;658126;-72
2024/01/19 10:42:40;;;;;;;23.93;9.10;;;-1.70;99.90;;;;;;4461100;28;657928;-73
2024/01/19 10:45:29;;;;;;;18.53;7.33;;;-1.60;99.90;;;;;;4450335;28;657291;-72
2024/01/19 10:48:26;;;;;;;12.17;4.07;;;-1.00;99.90;;;;;;4450373;27;657837;-73
2024/01/19 10:51:13;;;;;;;17.83;6.37;;;-1.20;99.90;;;;;;4422879;27;658166;-73
2024/01/19 10:54:02;;;;;;;20.93;8.43;;;-1.20;99.90;;;;;;4446151;27;658110;-73
2024/01/19 10:56:49;;;;;;;36.70;11.50;;;-1.60;99.90;;;;;;4426593;28;658641;-73
2024/01/19 10:59:36;;;;;;;31.27;11.23;;;-1.40;99.90;;;;;;4439584;27;660035;-74
2024/01/19 11:02:23;;;;;;;20.63;8.20;;;-1.70;99.90;;;;;;4437254;28;659036;-73
2024/01/19 11:05:12;;;;;;;27.03;10.37;;;-1.80;99.90;;;;;;4444876;28;658174;-74
2024/01/19 11:08:00;;;;;;;29.40;11.13;;;-1.30;99.90;;;;;;4427273;28;659264;-73
2024/01/19 11:10:48;;;;;;;33.15;13.18;;;-1.30;99.90;;;;;;4435353;28;658521;-72
2024/01/19 11:13:37;;;;;;;35.73;14.67;;;-0.90;99.90;;;;;;4450998;28;660164;-74
2024/01/19 11:16:25;;;;;;;37.67;13.03;;;-1.20;99.90;;;;;;4435464;28;658585;-73
2024/01/19 11:19:12;;;;;;;37.57;13.37;;;-1.10;99.90;;;;;;4445036;27;658707;-72
2024/01/19 11:22:01;;;;;;;30.10;12.53;;;-0.80;99.90;;;;;;4456179;28;658970;-73
2024/01/19 11:24:48;;;;;;;16.55;6.00;;;-1.10;99.90;;;;;;4430516;27;658672;-72
2024/01/19 11:27:40;;;;;;;16.77;5.93;;;-1.10;99.90;;;;;;4457137;28;658327;-73
2024/01/19 11:30:40;;;;;;;21.30;7.65;;;-1.30;99.90;;;;;;4424768;28;658084;-72
2024/01/19 11:33:30;;;;;;;31.17;12.80;;;-1.40;99.90;;;;;;4420254;28;657407;-72
2024/01/19 11:36:48;;;;;;;26.70;10.80;;;-1.70;99.90;;;;;;4438318;28;659014;-72
2024/01/19 11:39:43;;;;;;;19.83;6.03;;;-1.50;99.90;;;;;;4422843;28;658741;-73
2024/01/19 11:42:46;;;;;;;9.23;4.23;;;-1.50;99.90;;;;;;4436381;28;658510;-73
2024/01/19 11:45:42;;;;;;;30.30;10.67;;;-1.60;99.90;;;;;;4428988;28;657856;-72
2024/01/19 11:48:39;;;;;;;35.50;13.17;;;-1.70;99.90;;;;;;4430858;28;659303;-73
2024/01/19 11:51:31;;;;;;;32.47;13.23;;;-1.80;99.90;;;;;;4436080;28;658565;-72
2024/01/19 11:54:19;;;;;;;20.10;7.47;;;-1.60;99.90;;;;;;4431650;28;658460;-72
2024/01/19 11:57:20;;;;;;;25.97;10.30;;;-1.60;99.90;;;;;;4464373;28;657799;-73
2024/01/19 12:00:09;;;;;;;21.07;8.47;;;-1.70;99.90;;;;;;4417738;28;659391;-72
2024/01/19 12:02:56;;;;;;;37.27;14.33;;;-1.60;99.90;;;;;;4455254;28;658202;-72
2024/01/19 12:05:44;;;;;;;36.73;14.90;;;-1.80;99.90;;;;;;4439055;28;658422;-72
2024/01/19 12:08:32;;;;;;;41.50;11.37;;;-1.70;99.90;;;;;;4456903;28;658449;-72
2024/01/19 12:11:19;;;;;;;25.13;10.23;;;-1.50;99.90;;;;;;4426067;28;659085;-72
2024/01/19 12:14:09;;;;;;;39.43;16.87;;;-1.50;99.90;;;;;;4451215;28;658831;-72
2024/01/19 12:16:57;;;;;;;37.60;13.60;;;-1.50;99.90;;;;;;4424467;28;658972;-73
2024/01/19 12:19:44;;;;;;;25.43;10.57;;;-1.50;99.90;;;;;;4425980;28;658250;-73
2024/01/19 12:22:31;;;;;;;28.23;11.77;;;-1.50;99.90;;;;;;4443559;28;658470;-72
2024/01/19 12:25:19;;;;;;;33.63;14.03;;;-1.60;99.90;;;;;;4431172;28;659370;-73
2024/01/19 12:28:07;;;;;;;32.27;13.53;;;-1.90;99.90;;;;;;4458789;28;657868;-72
2024/01/19 12:30:56;;;;;;;21.57;7.50;;;-1.70;99.90;;;;;;4433212;28;659583;-73
2024/01/19 12:33:43;;;;;;;18.53;8.73;;;-1.70;99.90;;;;;;4429155;28;657763;-72
2024/01/19 12:36:30;;;;;;;38.97;17.60;;;-1.70;99.90;;;;;;4450889;28;659662;-73
2024/01/19 12:39:22;;;;;;;23.23;8.60;;;-1.70;99.90;;;;;;4445131;28;658315;-72
2024/01/19 12:42:09;;;;;;;34.20;13.90;;;-1.70;99.90;;;;;;4423100;28;658071;-72
2024/01/19 12:44:56;;;;;;;39.30;16.90;;;-1.90;99.90;;;;;;4456761;28;658043;-72
2024/01/19 12:47:45;;;;;;;30.87;10.47;;;-1.90;99.90;;;;;;4434135;28;659066;-72
2024/01/19 12:50:33;;;;;;;35.40;13.37;;;-1.90;99.90;;;;;;4439958;28;659156;-71
2024/01/19 12:53:20;;;;;;;13.73;5.57;;;-2.00;99.90;;;;;;4449975;28;659481;-72
2024/01/19 12:56:25;;;;;;;38.93;16.20;;;-2.00;99.90;;;;;;4441994;28;658727;-72
2024/01/19 12:59:15;;;;;;;27.33;11.10;;;-2.10;99.90;;;;;;4407510;28;659727;-72
2024/01/19 13:02:03;;;;;;;25.23;8.13;;;-2.00;99.90;;;;;;4428014;28;658967;-72
2024/01/19 13:04:51;;;;;;;35.07;13.60;;;-2.10;99.90;;;;;;4456702;28;658908;-71
2024/01/19 13:07:38;;;;;;;41.00;16.17;;;-2.20;99.90;;;;;;4434833;28;658490;-72
2024/01/19 13:10:26;;;;;;;34.40;14.30;;;-2.20;99.90;;;;;;4454384;28;659763;-72
2024/01/19 13:13:15;;;;;;;34.60;12.33;;;-2.10;99.90;;;;;;4424722;28;658819;-71
2024/01/19 13:16:07;;;;;;;37.47;16.83;;;-2.10;99.90;;;;;;4430743;28;658468;-71
2024/01/19 13:19:00;;;;;;;34.53;14.27;;;-2.20;99.90;;;;;;4428368;28;659481;-71
2024/01/19 13:21:49;;;;;;;29.33;11.80;;;-2.10;99.90;;;;;;4403019;28;659476;-71
2024/01/19 13:24:36;;;;;;;37.07;13.90;;;-2.00;99.90;;;;;;4449929;28;658126;-72
2024/01/19 13:27:23;;;;;;;37.15;14.13;;;-1.90;99.90;;;;;;4435665;28;658818;-72
2024/01/19 13:30:12;;;;;;;13.53;5.90;;;-1.70;99.90;;;;;;4452623;27;659167;-71
2024/01/19 13:33:00;;;;;;;39.67;17.33;;;-1.60;99.90;;;;;;4431510;28;658395;-71
2024/01/19 13:35:49;;;;;;;33.80;13.10;;;-1.90;99.90;;;;;;4420959;28;658930;-72
2024/01/19 13:38:38;;;;;;;42.50;12.80;;;-1.80;99.90;;;;;;4450620;28;658704;-73
2024/01/19 13:41:25;;;;;;;36.47;15.03;;;-1.80;99.90;;;;;;4430417;28;658813;-71
2024/01/19 13:44:13;;;;;;;35.77;13.97;;;-1.80;99.90;;;;;;4425686;28;658838;-72
2024/01/19 13:47:00;;;;;;;38.10;13.80;;;-1.80;99.90;;;;;;4445784;28;659183;-72
2024/01/19 13:49:47;;;;;;;33.70;13.13;;;-1.70;99.90;;;;;;4445318;28;658831;-72
2024/01/19 13:52:35;;;;;;;8.40;3.47;;;-1.70;99.90;;;;;;4453556;28;659565;-73
2024/01/19 13:55:24;;;;;;;48.27;15.70;;;-1.80;99.90;;;;;;4446926;28;657253;-71
2024/01/19 13:58:11;;;;;;;31.23;10.50;;;-2.00;99.90;;;;;;4456508;28;658202;-72
2024/01/19 14:00:58;;;;;;;34.57;14.73;;;-2.00;99.90;;;;;;4425206;28;658440;-71
2024/01/19 14:03:45;;;;;;;35.63;13.63;;;-2.00;99.90;;;;;;4456001;28;659543;-72
2024/01/19 14:06:33;;;;;;;39.40;15.00;;;-2.00;99.90;;;;;;4429805;27;658658;-71